Time;durP1;ratioP1;P1;durP2;ratioP2;P2;SDS_P1;SDS_P2;PMS_P1;PMS_P2;Temp;Humidity;BMP_temperature;BMP_pressure;BME280_temperature;BME280_humidity;BME280_pressure;Samples;Min_cycle;Max_cycle;Signal;HPM_P1;HPM_P2
2023/11/03 00:02:13;;;;;;;6.33;3.33;;;;;;;11.63;65.45;98369.25;5093753;28;20204;-63
2023/11/03 00:04:41;;;;;;;3.73;2.90;;;;;;;11.65;65.43;98370.84;5093867;28;20586;-63
2023/11/03 00:07:11;;;;;;;4.73;3.10;;;;;;;11.66;65.19;98371.69;5094042;28;20231;-67
2023/11/03 00:09:39;;;;;;;4.47;2.67;;;;;;;11.67;65.31;98363.91;5093507;28;20200;-62
2023/11/03 00:12:09;;;;;;;3.53;2.60;;;;;;;11.68;65.50;98365.56;5093444;28;20219;-63
2023/11/03 00:14:37;;;;;;;3.10;2.60;;;;;;;11.67;65.57;98368.19;5093713;28;20618;-64
2023/11/03 00:17:06;;;;;;;3.27;2.40;;;;;;;11.69;65.16;98361.25;5093636;28;20650;-64
2023/11/03 00:19:35;;;;;;;3.90;2.60;;;;;;;11.69;64.82;98359.50;5092981;28;20286;-61
2023/11/03 00:22:03;;;;;;;6.50;2.93;;;;;;;11.71;65.05;98359.41;5094224;28;20561;-62
2023/11/03 00:24:31;;;;;;;3.20;2.53;;;;;;;11.70;65.16;98362.91;5093486;28;20640;-62
2023/11/03 00:26:59;;;;;;;6.70;2.70;;;;;;;11.70;65.40;98350.84;5079354;28;20232;-62
2023/11/03 00:29:28;;;;;;;3.47;2.10;;;;;;;11.69;65.01;98351.75;5093195;28;20204;-61
2023/11/03 00:31:56;;;;;;;3.97;2.30;;;;;;;11.70;65.35;98350.00;5092894;28;20208;-62
2023/11/03 00:34:24;;;;;;;4.43;2.53;;;;;;;11.71;65.42;98354.25;5092957;28;20232;-62
2023/11/03 00:36:52;;;;;;;3.53;2.53;;;;;;;11.68;65.16;98350.09;5093077;28;20189;-62
2023/11/03 00:39:20;;;;;;;3.90;2.33;;;;;;;11.69;65.26;98358.66;5093200;28;20619;-72
2023/11/03 00:41:51;;;;;;;3.50;2.20;;;;;;;11.71;65.23;98354.25;5093148;28;20287;-62
2023/11/03 00:44:19;;;;;;;3.10;2.30;;;;;;;11.72;65.04;98353.38;5093002;28;20204;-62
2023/11/03 00:46:51;;;;;;;2.50;2.23;;;;;;;11.71;65.41;98343.94;5093137;28;20752;-63
2023/11/03 00:49:19;;;;;;;4.07;2.20;;;;;;;11.73;65.30;98344.72;5092710;28;20193;-60
2023/11/03 00:51:48;;;;;;;4.67;2.70;;;;;;;11.71;64.80;98331.03;5098158;28;20196;-65
2023/11/03 00:54:16;;;;;;;3.53;2.30;;;;;;;11.72;65.03;98340.47;5102990;28;20199;-65
2023/11/03 00:56:43;;;;;;;2.73;2.20;;;;;;;11.74;64.73;98341.22;5091987;28;20246;-63
2023/11/03 00:59:11;;;;;;;4.60;2.50;;;;;;;11.72;64.38;98335.31;5092622;28;20216;-62
2023/11/03 01:01:39;;;;;;;3.20;2.40;;;;;;;11.73;64.74;98339.56;5092832;28;20212;-65
2023/11/03 01:04:09;;;;;;;2.53;2.23;;;;;;;11.72;64.26;98323.25;5092241;28;20212;-65
2023/11/03 01:06:38;;;;;;;3.17;2.20;;;;;;;11.74;64.00;98312.84;5078796;28;20205;-64
2023/11/03 01:09:07;;;;;;;4.80;2.30;;;;;;;11.74;64.02;98312.84;5092402;28;20196;-67
2023/11/03 01:11:36;;;;;;;3.43;2.57;;;;;;;11.76;63.43;98311.06;5092258;28;20228;-64
2023/11/03 01:14:05;;;;;;;2.80;2.00;;;;;;;11.77;63.67;98303.22;5092498;28;20204;-62
2023/11/03 01:16:34;;;;;;;4.57;2.50;;;;;;;11.80;63.27;98312.59;5092223;28;20224;-63
2023/11/03 01:19:04;;;;;;;4.80;2.20;;;;;;;11.78;62.99;98299.78;5092624;28;20208;-63
2023/11/03 01:21:39;;;;;;;2.60;2.03;;;;;;;11.80;63.27;98294.53;5091526;28;20207;-62
2023/11/03 01:24:10;;;;;;;2.07;1.50;;;;;;;11.81;62.51;98304.78;5092270;28;20683;-67
2023/11/03 01:26:38;;;;;;;4.33;2.40;;;;;;;11.84;62.36;98289.19;5091969;28;20228;-66
2023/11/03 01:29:07;;;;;;;5.27;1.80;;;;;;;11.85;62.12;98290.84;5092055;28;20212;-67
2023/11/03 01:31:36;;;;;;;1.60;1.50;;;;;;;11.88;61.61;98289.88;5092097;28;20296;-64
2023/11/03 01:34:05;;;;;;;3.13;1.80;;;;;;;11.87;61.68;98288.22;5091768;28;20236;-63
2023/11/03 01:36:37;;;;;;;5.43;1.90;;;;;;;11.87;61.57;98287.38;5091966;28;20201;-63
2023/11/03 01:39:06;;;;;;;3.43;1.80;;;;;;;11.87;61.22;98288.22;5092183;28;20678;-63
2023/11/03 01:41:34;;;;;;;2.53;1.80;;;;;;;11.87;61.33;98283.06;5091925;28;20733;-63
2023/11/03 01:44:07;;;;;;;1.87;1.63;;;;;;;11.89;61.29;98283.81;5091988;28;20200;-62
2023/11/03 01:46:36;;;;;;;2.50;1.83;;;;;;;11.89;60.87;98270.06;5091991;28;20686;-67
2023/11/03 01:49:06;;;;;;;2.47;1.83;;;;;;;11.90;60.64;98271.78;5091573;28;20234;-68
2023/11/03 01:51:36;;;;;;;4.97;1.80;;;;;;;11.90;61.01;98267.44;5091476;28;20219;-67
2023/11/03 01:54:06;;;;;;;3.00;1.70;;;;;;;11.90;60.91;98262.28;5091442;28;20216;-63
2023/11/03 01:56:36;;;;;;;3.37;2.00;;;;;;;11.94;60.55;98268.13;5091617;28;20758;-62
2023/11/03 01:59:06;;;;;;;4.53;2.00;;;;;;;11.95;60.24;98252.56;5091565;28;20208;-66
2023/11/03 02:01:36;;;;;;;2.27;2.07;;;;;;;11.96;60.35;98256.81;5091013;28;20215;-67
2023/11/03 02:04:04;;;;;;;3.57;1.70;;;;;;;11.98;60.10;98249.03;5091455;28;20215;-65
2023/11/03 02:06:33;;;;;;;3.20;2.10;;;;;;;11.97;59.97;98245.59;5091424;28;20219;-66
2023/11/03 02:09:05;;;;;;;3.37;1.93;;;;;;;11.95;60.30;98239.66;5091751;28;20200;-65
2023/11/03 02:11:33;;;;;;;1.83;1.60;;;;;;;11.96;59.93;98246.50;5091715;28;20253;-67
2023/11/03 02:14:01;;;;;;;2.53;1.60;;;;;;;11.94;60.01;98235.41;5091167;28;20208;-65
2023/11/03 02:16:29;;;;;;;2.27;1.70;;;;;;;11.95;59.87;98239.66;5090955;28;20204;-65
2023/11/03 02:18:58;;;;;;;5.00;2.00;;;;;;;11.96;59.79;98228.44;5091203;28;20201;-67
2023/11/03 02:21:28;;;;;;;3.30;1.73;;;;;;;11.96;60.02;98225.84;5090910;28;20215;-67
2023/11/03 02:23:57;;;;;;;2.40;1.80;;;;;;;11.97;60.05;98217.22;5091281;28;20232;-69
2023/11/03 02:26:25;;;;;;;3.03;1.63;;;;;;;11.97;59.71;98212.06;5091163;28;20820;-67
2023/11/03 02:28:53;;;;;;;2.47;1.73;;;;;;;11.99;60.08;98217.13;5091320;28;20227;-63
2023/11/03 02:31:21;;;;;;;1.97;1.70;;;;;;;12.00;59.58;98217.06;5101260;28;20231;-63
2023/11/03 02:33:49;;;;;;;3.70;1.80;;;;;;;12.01;59.73;98218.75;5090057;28;20227;-62
2023/11/03 02:36:18;;;;;;;4.30;1.67;;;;;;;12.03;59.16;98221.25;5091170;28;20261;-64
2023/11/03 02:38:46;;;;;;;2.83;1.60;;;;;;;12.03;59.48;98228.97;5090964;28;20674;-60
2023/11/03 02:41:15;;;;;;;2.23;1.70;;;;;;;12.02;59.41;98225.56;5090791;28;20219;-61
2023/11/03 02:43:43;;;;;;;2.53;1.80;;;;;;;12.04;59.43;98226.34;5090749;28;20632;-61
2023/11/03 02:46:11;;;;;;;6.83;2.37;;;;;;;12.04;58.99;98234.09;5090607;28;20283;-62
2023/11/03 02:48:39;;;;;;;3.60;1.50;;;;;;;12.04;58.91;98212.56;5090790;28;20236;-62
2023/11/03 02:51:07;;;;;;;3.07;1.80;;;;;;;12.06;59.17;98216.78;5089798;28;20254;-63
2023/11/03 02:53:35;;;;;;;3.57;1.83;;;;;;;12.06;58.82;98211.59;5090996;28;20659;-62
2023/11/03 02:56:03;;;;;;;2.20;1.73;;;;;;;12.06;58.76;98214.19;5090749;28;20647;-63
2023/11/03 02:58:35;;;;;;;1.50;1.33;;;;;;;12.05;59.08;98215.09;5090259;28;20372;-62
2023/11/03 03:01:03;;;;;;;2.23;1.73;;;;;;;12.06;58.73;98206.44;5090750;28;20661;-64
2023/11/03 03:03:31;;;;;;;2.33;1.80;;;;;;;12.07;59.16;98212.44;5090631;28;20291;-67
2023/11/03 03:05:59;;;;;;;5.40;1.43;;;;;;;12.08;58.72;98220.13;5090489;28;20209;-63
2023/11/03 03:08:27;;;;;;;3.40;2.07;;;;;;;12.11;59.26;98218.28;5090514;28;20236;-61
2023/11/03 03:10:55;;;;;;;3.20;1.60;;;;;;;12.11;58.78;98223.47;5090983;28;20242;-62
2023/11/03 03:13:23;;;;;;;4.17;1.80;;;;;;;12.10;58.65;98225.22;5090505;28;20201;-61
2023/11/03 03:15:52;;;;;;;2.27;1.70;;;;;;;12.08;58.67;98217.53;5090412;28;20201;-59
2023/11/03 03:18:21;;;;;;;4.07;1.83;;;;;;;12.11;59.02;98224.28;5090482;28;20722;-64
2023/11/03 03:20:50;;;;;;;3.33;1.43;;;;;;;12.11;58.52;98233.78;5094081;28;20209;-68
2023/11/03 03:23:18;;;;;;;4.23;1.70;;;;;;;12.11;58.78;98218.28;5094363;28;20209;-67
2023/11/03 03:25:46;;;;;;;1.90;1.70;;;;;;;12.12;58.69;98212.25;5093421;28;20227;-68
2023/11/03 03:28:14;;;;;;;2.10;1.63;;;;;;;12.14;58.77;98218.16;5094249;28;20224;-69
2023/11/03 03:30:42;;;;;;;3.00;1.47;;;;;;;12.14;58.93;98216.41;5094751;28;20222;-70
2023/11/03 03:33:11;;;;;;;2.20;1.60;;;;;;;12.16;58.66;98221.50;5094598;28;20642;-70
2023/11/03 03:35:40;;;;;;;2.53;1.60;;;;;;;12.17;58.81;98221.44;5094532;28;20245;-71
2023/11/03 03:38:08;;;;;;;2.13;1.63;;;;;;;12.15;58.80;98219.81;5094161;28;20216;-69
2023/11/03 03:40:36;;;;;;;4.20;1.70;;;;;;;12.17;58.86;98223.19;5080464;28;20312;-67
2023/11/03 03:43:04;;;;;;;3.33;1.80;;;;;;;12.16;58.88;98212.03;5094527;28;20201;-69
2023/11/03 03:45:32;;;;;;;3.30;2.00;;;;;;;12.19;58.80;98219.63;5093553;28;20200;-65
2023/11/03 03:48:00;;;;;;;2.27;1.60;;;;;;;12.15;58.51;98205.19;5094572;28;20217;-69
2023/11/03 03:50:29;;;;;;;3.70;1.83;;;;;;;12.13;58.62;98201.00;5094417;28;20223;-61
2023/11/03 03:52:57;;;;;;;2.10;1.53;;;;;;;12.10;58.90;98196.81;5094020;28;20227;-62
2023/11/03 03:55:25;;;;;;;2.93;1.90;;;;;;;12.03;58.99;98185.94;5094484;28;20732;-63
2023/11/03 03:57:53;;;;;;;2.90;1.63;;;;;;;12.01;59.17;98181.78;5094160;28;20562;-62
2023/11/03 04:00:21;;;;;;;2.87;1.70;;;;;;;11.97;59.05;98180.25;5094280;28;20209;-61
2023/11/03 04:02:49;;;;;;;4.37;1.43;;;;;;;11.94;59.10;98170.91;5093928;28;20192;-62
2023/11/03 04:05:17;;;;;;;2.07;1.77;;;;;;;11.90;59.21;98160.78;5093614;28;20204;-63
2023/11/03 04:07:47;;;;;;;6.93;1.80;;;;;;;11.88;59.41;98149.69;5093761;28;20666;-63
2023/11/03 04:10:15;;;;;;;5.03;2.20;;;;;;;11.89;59.36;98156.53;5093681;28;20212;-62
2023/11/03 04:12:43;;;;;;;4.07;2.00;;;;;;;11.86;59.38;98160.09;5093516;28;20200;-61
2023/11/03 04:15:11;;;;;;;4.07;1.80;;;;;;;11.84;59.55;98151.59;5092965;28;20215;-61
2023/11/03 04:17:38;;;;;;;1.93;1.70;;;;;;;11.79;59.52;98153.53;5093062;28;20228;-65
2023/11/03 04:20:08;;;;;;;5.27;1.70;;;;;;;11.79;59.48;98148.38;5093406;28;20204;-62
2023/11/03 04:22:36;;;;;;;3.77;1.73;;;;;;;11.74;59.56;98142.56;5093480;28;20211;-62
2023/11/03 04:25:06;;;;;;;2.93;1.80;;;;;;;11.74;59.61;98139.97;5093402;28;20287;-61
2023/11/03 04:27:34;;;;;;;2.50;1.93;;;;;;;11.71;59.60;98140.97;5093167;28;20315;-62
2023/11/03 04:30:02;;;;;;;1.97;1.77;;;;;;;11.71;59.41;98130.66;5092302;28;20212;-61
2023/11/03 04:32:30;;;;;;;2.43;1.67;;;;;;;11.71;59.62;98142.69;5092865;28;20204;-66
2023/11/03 04:34:59;;;;;;;4.23;2.07;;;;;;;11.70;59.62;98130.72;5093401;28;20205;-66
2023/11/03 04:37:29;;;;;;;7.67;1.50;;;;;;;11.66;59.30;98124.03;5091853;28;20196;-66
2023/11/03 04:39:57;;;;;;;4.33;1.83;;;;;;;11.61;59.47;98113.94;5093381;28;20201;-65
2023/11/03 04:42:26;;;;;;;2.53;1.93;;;;;;;11.63;59.55;98116.44;5093472;28;20652;-66
2023/11/03 04:44:54;;;;;;;5.23;2.40;;;;;;;11.64;59.95;98118.13;5092812;28;20254;-68
2023/11/03 04:47:22;;;;;;;3.77;1.80;;;;;;;11.64;59.42;98108.63;5092752;28;20299;-66
2023/11/03 04:49:50;;;;;;;2.37;1.50;;;;;;;11.64;59.36;98115.56;5093058;28;20257;-66
2023/11/03 04:52:19;;;;;;;2.57;1.60;;;;;;;11.61;59.67;98111.34;5093228;28;20196;-65
2023/11/03 04:54:47;;;;;;;2.10;1.80;;;;;;;11.58;59.80;98107.16;5093349;28;20214;-60
2023/11/03 04:57:16;;;;;;;4.20;1.70;;;;;;;11.57;59.77;98104.69;5092989;28;20215;-67
2023/11/03 04:59:46;;;;;;;2.90;1.80;;;;;;;11.56;59.73;98098.69;5092994;28;20223;-64
2023/11/03 05:02:14;;;;;;;2.50;1.83;;;;;;;11.57;59.63;98100.34;5095872;28;20231;-67
2023/11/03 05:04:42;;;;;;;3.07;2.03;;;;;;;11.56;59.79;98093.53;5094108;28;20201;-66
2023/11/03 05:07:10;;;;;;;3.20;1.90;;;;;;;11.54;59.69;98105.66;5092950;28;20208;-66
2023/11/03 05:09:38;;;;;;;4.70;1.93;;;;;;;11.52;59.59;98097.13;5092839;28;20725;-66
2023/11/03 05:12:07;;;;;;;2.07;1.53;;;;;;;11.49;59.75;98093.88;5092817;28;20559;-66
2023/11/03 05:14:36;;;;;;;2.20;1.97;;;;;;;11.49;59.88;98092.13;5092601;28;20666;-66
2023/11/03 05:17:07;;;;;;;2.83;1.70;;;;;;;11.48;59.71;98082.72;5092616;28;20236;-64
2023/11/03 05:19:36;;;;;;;2.77;2.10;;;;;;;11.50;60.07;98083.47;5092258;28;20200;-66
2023/11/03 05:22:04;;;;;;;3.50;2.20;;;;;;;11.52;59.68;98073.91;5092499;28;20239;-68
2023/11/03 05:24:32;;;;;;;2.40;1.90;;;;;;;11.53;59.91;98067.88;5092691;28;20414;-68
2023/11/03 05:27:00;;;;;;;3.13;2.17;;;;;;;11.56;59.60;98072.88;5092630;28;20223;-67
2023/11/03 05:29:28;;;;;;;2.47;2.23;;;;;;;11.57;59.83;98068.56;5092371;28;20242;-63
2023/11/03 05:31:55;;;;;;;2.77;1.80;;;;;;;11.58;59.52;98070.22;5092061;28;20605;-63
2023/11/03 05:34:25;;;;;;;2.50;1.93;;;;;;;11.57;59.49;98064.25;5096615;28;20208;-63
2023/11/03 05:36:53;;;;;;;3.27;1.90;;;;;;;11.55;59.42;98066.03;5094980;28;20648;-68
2023/11/03 05:39:22;;;;;;;3.57;2.27;;;;;;;11.53;59.17;98067.88;5092426;28;20250;-70
2023/11/03 05:41:50;;;;;;;3.63;2.03;;;;;;;11.51;59.32;98069.66;5091649;28;20201;-63
2023/11/03 05:44:18;;;;;;;4.07;1.87;;;;;;;11.51;59.18;98072.25;5092594;28;20565;-68
2023/11/03 05:46:46;;;;;;;5.33;2.00;;;;;;;11.52;59.32;98075.66;5091525;28;20212;-69
2023/11/03 05:49:14;;;;;;;2.67;2.13;;;;;;;11.53;59.46;98067.03;5091771;28;20212;-69
2023/11/03 05:51:47;;;;;;;2.10;1.80;;;;;;;11.54;59.26;98068.69;5092095;28;20208;-67
2023/11/03 05:54:15;;;;;;;2.67;2.20;;;;;;;11.53;59.39;98064.47;5092041;28;20232;-67
2023/11/03 05:56:43;;;;;;;3.07;2.10;;;;;;;11.52;59.44;98061.03;5091509;28;20208;-69
2023/11/03 05:59:11;;;;;;;3.20;2.07;;;;;;;11.51;59.28;98063.69;5091885;28;20575;-69
2023/11/03 06:01:39;;;;;;;2.33;1.80;;;;;;;11.56;59.35;98067.72;5091064;28;20253;-63
2023/11/03 06:04:07;;;;;;;4.20;1.87;;;;;;;11.55;59.01;98050.56;5099951;28;20235;-63
2023/11/03 06:06:35;;;;;;;4.40;2.03;;;;;;;11.60;58.85;98048.63;5083401;28;20205;-62
2023/11/03 06:09:05;;;;;;;3.30;1.97;;;;;;;11.63;59.00;98044.22;5091438;28;20212;-69
2023/11/03 06:11:33;;;;;;;3.93;2.43;;;;;;;11.68;58.75;98045.66;5091352;28;20277;-70
2023/11/03 06:14:01;;;;;;;6.17;2.20;;;;;;;11.74;58.87;98034.19;5091478;28;20283;-70
2023/11/03 06:16:29;;;;;;;4.90;2.10;;;;;;;11.82;58.74;98042.44;5091038;28;20200;-69
2023/11/03 06:18:57;;;;;;;4.60;2.00;;;;;;;11.86;58.83;98031.06;5091816;28;20204;-69
2023/11/03 06:21:26;;;;;;;2.93;2.07;;;;;;;11.88;58.89;98031.81;5090660;28;20204;-68
2023/11/03 06:23:55;;;;;;;2.40;1.70;;;;;;;11.87;58.55;98025.00;5082864;28;20250;-70
2023/11/03 06:26:26;;;;;;;2.77;2.27;;;;;;;11.87;58.83;98034.50;5091504;28;20196;-72
2023/11/03 06:28:56;;;;;;;4.70;2.23;;;;;;;11.84;58.89;98027.72;5091151;28;20233;-70
2023/11/03 06:31:24;;;;;;;4.50;2.50;;;;;;;11.86;59.08;98023.34;5091555;28;20197;-62
2023/11/03 06:33:52;;;;;;;3.70;1.80;;;;;;;11.89;58.87;98018.00;5090642;28;20275;-62
2023/11/03 06:36:20;;;;;;;2.77;2.10;;;;;;;11.90;59.09;97995.63;5091623;28;20246;-67
2023/11/03 06:38:48;;;;;;;4.43;2.00;;;;;;;11.96;59.02;97990.16;5091339;28;20212;-65
2023/11/03 06:41:16;;;;;;;6.60;2.17;;;;;;;11.99;58.92;97993.41;5091246;28;20250;-64
2023/11/03 06:43:46;;;;;;;3.47;2.00;;;;;;;12.02;58.87;97998.41;5090978;28;20204;-70
2023/11/03 06:46:16;;;;;;;4.33;2.00;;;;;;;12.03;58.76;97987.19;5090968;28;20255;-71
2023/11/03 06:48:45;;;;;;;5.47;2.17;;;;;;;12.06;58.15;97978.44;5091255;28;20690;-69
2023/11/03 06:51:13;;;;;;;2.97;1.87;;;;;;;12.04;58.46;97973.38;5091156;28;20226;-69
2023/11/03 06:53:41;;;;;;;7.00;2.23;;;;;;;12.05;58.53;97969.88;5090487;28;20629;-62
2023/11/03 06:56:09;;;;;;;2.77;2.27;;;;;;;12.08;58.23;97964.56;5090657;28;20200;-61
2023/11/03 06:58:37;;;;;;;4.83;1.87;;;;;;;12.08;58.41;97971.47;5091072;28;20547;-63
2023/11/03 07:01:06;;;;;;;3.17;1.97;;;;;;;12.10;58.25;97969.63;5091065;28;20649;-62
2023/11/03 07:03:34;;;;;;;5.00;2.27;;;;;;;12.13;57.83;97976.41;5094970;28;20203;-64
2023/11/03 07:06:03;;;;;;;3.53;2.27;;;;;;;12.13;57.94;97976.41;5095007;28;20269;-66
2023/11/03 07:08:32;;;;;;;3.20;2.00;;;;;;;12.15;57.59;97977.13;5096487;28;20597;-66
2023/11/03 07:11:00;;;;;;;4.27;2.30;;;;;;;12.15;57.44;97951.31;5096530;28;20659;-62
2023/11/03 07:13:29;;;;;;;2.87;2.30;;;;;;;12.14;57.28;97970.31;5090740;28;20296;-63
2023/11/03 07:15:57;;;;;;;3.73;2.37;;;;;;;12.16;57.36;97953.00;5090968;28;20716;-65
2023/11/03 07:18:27;;;;;;;4.60;2.40;;;;;;;12.18;57.67;97961.50;5090493;28;20266;-63
2023/11/03 07:20:56;;;;;;;5.13;2.43;;;;;;;12.19;57.20;97961.44;5090952;28;20213;-62
2023/11/03 07:23:24;;;;;;;3.23;1.93;;;;;;;12.22;57.31;97963.00;5090588;28;20683;-64
2023/11/03 07:25:51;;;;;;;5.27;2.10;;;;;;;12.22;57.64;97958.66;5091015;28;20205;-62
2023/11/03 07:28:19;;;;;;;2.67;2.03;;;;;;;12.23;57.55;97956.94;5090646;28;20236;-65
2023/11/03 07:30:48;;;;;;;4.13;2.30;;;;;;;12.25;57.56;97971.44;5090653;28;20319;-63
2023/11/03 07:33:18;;;;;;;3.60;2.27;;;;;;;12.25;57.21;97968.00;5090417;28;20212;-61
2023/11/03 07:35:48;;;;;;;5.43;2.47;;;;;;;12.27;57.44;97966.22;5090593;28;20200;-63
2023/11/03 07:38:17;;;;;;;8.57;2.40;;;;;;;12.28;57.40;97958.38;5093302;28;20200;-63
2023/11/03 07:40:49;;;;;;;3.60;2.37;;;;;;;12.29;57.59;97948.88;5102017;28;20306;-61
2023/11/03 07:43:17;;;;;;;4.37;2.30;;;;;;;12.29;57.59;97959.19;5089897;28;20671;-64
2023/11/03 07:45:45;;;;;;;4.93;2.13;;;;;;;12.30;57.42;97966.06;5090723;28;20598;-62
2023/11/03 07:48:13;;;;;;;8.07;2.00;;;;;;;12.32;57.43;97954.72;5090592;28;20209;-65
2023/11/03 07:50:41;;;;;;;6.13;2.03;;;;;;;12.33;57.80;97963.28;5090308;28;20219;-62
2023/11/03 07:53:10;;;;;;;6.60;2.23;;;;;;;12.35;57.47;97953.72;5091052;28;20240;-63
2023/11/03 07:55:38;;;;;;;3.43;2.13;;;;;;;12.38;57.05;97953.56;5090625;28;20679;-65
2023/11/03 07:58:06;;;;;;;3.23;2.13;;;;;;;12.41;57.29;97966.31;5090487;28;20212;-63
2023/11/03 08:00:34;;;;;;;5.60;2.33;;;;;;;12.48;57.44;97959.94;5090622;28;20236;-62
2023/11/03 08:03:05;;;;;;;4.23;2.80;;;;;;;12.50;57.30;97965.81;5090211;28;20228;-61
2023/11/03 08:05:34;;;;;;;7.10;2.20;;;;;;;12.55;56.98;97970.75;5092142;28;20728;-64
2023/11/03 08:08:03;;;;;;;5.00;2.90;;;;;;;12.61;56.89;97969.59;5094026;28;20228;-62
2023/11/03 08:10:32;;;;;;;5.77;2.57;;;;;;;12.64;56.76;97956.53;5093905;28;20265;-64
2023/11/03 08:13:00;;;;;;;3.13;2.23;;;;;;;12.65;56.56;97969.34;5093748;28;20192;-60
2023/11/03 08:15:28;;;;;;;3.60;1.97;;;;;;;12.66;57.09;97952.91;5093776;28;20206;-63
2023/11/03 08:17:56;;;;;;;6.23;2.20;;;;;;;12.70;57.18;97964.78;5093511;28;20236;-64
2023/11/03 08:20:24;;;;;;;3.97;2.10;;;;;;;12.71;56.38;97953.53;5093541;28;20283;-63
2023/11/03 08:22:52;;;;;;;5.67;2.40;;;;;;;12.78;56.76;97960.03;5093756;28;20208;-63
2023/11/03 08:25:20;;;;;;;4.13;2.30;;;;;;;12.84;56.96;97966.59;5093915;28;20197;-64
2023/11/03 08:27:50;;;;;;;3.03;2.27;;;;;;;12.85;56.32;97957.97;5093856;28;20992;-62
2023/11/03 08:30:18;;;;;;;4.93;2.50;;;;;;;12.90;56.33;97950.78;5093841;28;20221;-63
2023/11/03 08:32:48;;;;;;;4.60;2.57;;;;;;;12.92;56.57;97961.84;5093380;28;20207;-65
2023/11/03 08:35:17;;;;;;;7.07;2.33;;;;;;;12.93;56.30;97953.19;5093300;28;20200;-64
2023/11/03 08:37:45;;;;;;;5.00;3.03;;;;;;;12.93;56.08;97968.72;5093293;28;20702;-60
2023/11/03 08:40:16;;;;;;;6.37;2.87;;;;;;;12.90;56.50;97958.53;5093405;28;20289;-62
2023/11/03 08:42:45;;;;;;;4.43;2.10;;;;;;;12.91;56.12;97949.84;5093186;28;20208;-63
2023/11/03 08:45:15;;;;;;;5.13;2.67;;;;;;;12.91;56.58;97952.44;5093182;28;20208;-63
2023/11/03 08:47:45;;;;;;;6.13;2.40;;;;;;;12.91;55.95;97942.09;5092947;28;20204;-62
2023/11/03 08:50:15;;;;;;;6.60;2.33;;;;;;;12.95;56.38;97940.19;5093104;28;20227;-63
2023/11/03 08:52:45;;;;;;;3.90;2.10;;;;;;;12.98;56.56;97938.25;5092924;28;20262;-62
2023/11/03 08:55:13;;;;;;;3.83;2.57;;;;;;;12.98;55.93;97937.44;5093093;28;20239;-61
2023/11/03 08:57:42;;;;;;;3.30;2.10;;;;;;;12.99;55.99;97933.91;5092680;28;20197;-63
2023/11/03 09:00:15;;;;;;;4.73;2.33;;;;;;;12.99;56.11;97919.22;5092463;28;20205;-62
2023/11/03 09:02:47;;;;;;;5.17;2.90;;;;;;;12.98;56.00;97930.50;5092940;28;20417;-61
2023/11/03 09:05:17;;;;;;;5.30;2.60;;;;;;;13.00;56.05;97926.09;5091262;28;20196;-63
2023/11/03 09:07:47;;;;;;;4.13;2.40;;;;;;;13.01;55.91;97927.75;5093014;28;20788;-60
2023/11/03 09:10:15;;;;;;;4.00;2.20;;;;;;;13.07;55.96;97957.63;5092641;28;20224;-62
2023/11/03 09:12:44;;;;;;;2.87;2.20;;;;;;;13.09;55.92;97939.41;5093080;28;20633;-61
2023/11/03 09:15:12;;;;;;;7.03;2.60;;;;;;;13.07;55.64;97952.44;5092654;28;20208;-63
2023/11/03 09:17:44;;;;;;;6.53;2.80;;;;;;;13.06;56.15;97943.84;5091863;28;20633;-65
2023/11/03 09:20:17;;;;;;;4.83;2.80;;;;;;;13.04;55.61;97944.84;5092413;28;20256;-62
2023/11/03 09:22:47;;;;;;;3.40;2.60;;;;;;;13.04;55.95;97945.69;5092516;28;20311;-62
2023/11/03 09:25:16;;;;;;;4.07;2.97;;;;;;;13.04;55.87;97927.59;5092295;28;20219;-64
2023/11/03 09:27:44;;;;;;;3.00;2.30;;;;;;;13.06;56.08;97922.31;5092680;28;20243;-64
2023/11/03 09:30:12;;;;;;;3.83;2.87;;;;;;;13.05;55.78;97918.06;5092424;28;20220;-63
2023/11/03 09:32:41;;;;;;;4.97;2.53;;;;;;;13.05;55.86;97924.06;5092571;28;20644;-63
2023/11/03 09:35:10;;;;;;;4.13;2.50;;;;;;;13.08;56.45;97942.94;5091725;28;20201;-65
2023/11/03 09:37:39;;;;;;;6.50;3.17;;;;;;;13.10;56.27;97936.75;5092444;28;20205;-65
2023/11/03 09:40:09;;;;;;;6.00;2.87;;;;;;;13.10;55.90;97938.50;5091937;28;20655;-63
2023/11/03 09:42:37;;;;;;;3.50;2.50;;;;;;;13.10;56.31;97938.50;5092122;28;20193;-71
2023/11/03 09:45:12;;;;;;;5.93;2.63;;;;;;;13.10;55.81;97941.09;5091931;28;20204;-64
2023/11/03 09:47:41;;;;;;;5.10;2.90;;;;;;;13.09;56.10;97935.09;5091921;28;20211;-63
2023/11/03 09:50:10;;;;;;;4.77;2.97;;;;;;;13.10;56.64;97939.31;5091994;28;20215;-66
2023/11/03 09:52:47;;;;;;;5.77;2.80;;;;;;;13.06;58.52;97930.91;5090566;28;20498;-63
2023/11/03 09:55:19;;;;;;;4.23;2.73;;;;;;;13.02;59.67;97926.81;5091830;28;20209;-63
2023/11/03 09:57:50;;;;;;;3.47;2.70;;;;;;;12.94;60.10;97910.91;5091194;28;20725;-62
2023/11/03 10:00:22;;;;;;;3.97;3.17;;;;;;;12.88;61.17;97906.06;5091370;28;20192;-64
2023/11/03 10:02:51;;;;;;;4.30;3.10;;;;;;;12.79;61.80;97904.84;5091502;28;20262;-64
2023/11/03 10:05:21;;;;;;;5.47;3.30;;;;;;;12.73;62.07;97915.50;5092063;28;20571;-61
2023/11/03 10:08:00;;;;;;;5.37;2.83;;;;;;;12.70;62.82;97892.44;5090490;28;20251;-62
2023/11/03 10:10:29;;;;;;;6.07;3.23;;;;;;;12.66;63.31;97893.50;5091525;28;20230;-63
2023/11/03 10:12:58;;;;;;;4.57;3.00;;;;;;;12.63;63.60;97891.09;5091409;28;20209;-65
2023/11/03 10:15:26;;;;;;;5.83;3.17;;;;;;;12.61;63.75;97874.00;5091561;28;20239;-62
2023/11/03 10:17:55;;;;;;;8.03;3.80;;;;;;;12.57;63.48;97869.00;5091085;28;20232;-63
2023/11/03 10:20:25;;;;;;;4.47;3.27;;;;;;;12.58;64.00;97869.84;5091424;28;20534;-62
2023/11/03 10:22:56;;;;;;;8.17;3.37;;;;;;;12.56;64.06;97866.53;5091372;28;20208;-70
2023/11/03 10:25:26;;;;;;;7.37;3.70;;;;;;;12.62;64.04;97860.16;5091732;28;20667;-70
2023/11/03 10:27:56;;;;;;;6.13;3.13;;;;;;;12.64;63.57;97853.19;5091394;28;20299;-70
2023/11/03 10:30:29;;;;;;;6.80;3.40;;;;;;;12.69;63.30;97843.41;5077667;28;20220;-68
2023/11/03 10:32:58;;;;;;;7.03;3.03;;;;;;;12.79;62.99;97862.66;5085485;28;20635;-70
2023/11/03 10:35:28;;;;;;;5.17;2.60;;;;;;;12.90;61.83;97851.72;5090854;28;20196;-69
2023/11/03 10:37:58;;;;;;;4.67;3.30;;;;;;;12.99;61.80;97835.69;5092442;28;20220;-70
2023/11/03 10:40:26;;;;;;;3.93;3.10;;;;;;;13.03;60.95;97830.28;5092244;28;20216;-69
2023/11/03 10:42:58;;;;;;;3.33;2.53;;;;;;;13.08;60.35;97832.59;5091377;28;20219;-68
2023/11/03 10:45:31;;;;;;;4.20;2.83;;;;;;;13.18;59.86;97814.78;5091126;28;20200;-70
2023/11/03 10:48:09;;;;;;;5.07;3.43;;;;;;;13.31;59.01;97833.06;5078012;28;20269;-69
2023/11/03 10:50:45;;;;;;;3.93;2.70;;;;;;;13.46;58.86;97814.88;5090869;28;20213;-69
2023/11/03 10:53:23;;;;;;;3.20;2.13;;;;;;;13.52;58.36;97817.09;5091198;28;20253;-71
2023/11/03 10:55:56;;;;;;;6.23;3.10;;;;;;;13.53;58.38;97816.16;5090875;28;20200;-69
2023/11/03 10:58:24;;;;;;;5.00;2.80;;;;;;;13.57;57.58;97810.81;5091246;28;20602;-69
2023/11/03 11:01:02;;;;;;;4.07;3.07;;;;;;;13.54;57.62;97812.66;5090993;28;20580;-71
2023/11/03 11:03:34;;;;;;;4.77;2.40;;;;;;;13.52;57.69;97811.94;5091403;28;20677;-71
2023/11/03 11:06:11;;;;;;;6.77;3.13;;;;;;;13.54;58.16;97815.25;5090214;28;20291;-70
2023/11/03 11:08:43;;;;;;;4.70;2.50;;;;;;;13.57;57.58;97805.66;5092431;28;20746;-70
2023/11/03 11:11:11;;;;;;;7.87;2.67;;;;;;;13.63;57.82;97797.53;5090969;28;20747;-69
2023/11/03 11:13:41;;;;;;;3.67;2.57;;;;;;;13.67;57.65;97791.25;5090955;28;20201;-70
2023/11/03 11:16:12;;;;;;;6.77;2.83;;;;;;;13.69;57.38;97781.59;5090584;28;20200;-71
2023/11/03 11:18:46;;;;;;;4.67;2.70;;;;;;;13.74;57.72;97777.84;5090435;28;20305;-71
2023/11/03 11:21:19;;;;;;;4.87;2.93;;;;;;;13.76;57.59;97775.13;5090748;28;20212;-68
2023/11/03 11:23:48;;;;;;;4.83;2.80;;;;;;;13.73;57.67;97767.56;5090888;28;20611;-69
2023/11/03 11:26:20;;;;;;;4.67;2.53;;;;;;;13.74;57.84;97757.13;5090887;28;20209;-69
2023/11/03 11:28:51;;;;;;;8.83;3.60;;;;;;;13.71;57.49;97756.47;5090991;28;20578;-68
2023/11/03 11:31:38;;;;;;;4.43;3.07;;;;;;;13.69;57.66;97763.50;5090862;28;20311;-70
2023/11/03 11:34:08;;;;;;;6.63;3.17;;;;;;;13.67;57.79;97768.78;5084828;28;20212;-68
2023/11/03 11:36:39;;;;;;;4.10;3.33;;;;;;;13.66;57.92;97748.16;5090939;28;20672;-69
2023/11/03 11:39:13;;;;;;;6.20;3.10;;;;;;;13.62;58.00;97747.50;5091917;28;20212;-73
2023/11/03 11:41:50;;;;;;;4.90;3.27;;;;;;;13.63;58.17;97744.00;5099384;28;20283;-75
2023/11/03 11:44:22;;;;;;;4.97;3.00;;;;;;;13.65;58.45;97746.50;5094480;28;20657;-72